createdAt,value
2019-04-26T00:00:10.530Z,8.20
2019-04-26T00:02:41.538Z,8.98
2019-04-26T00:05:10.881Z,8.50
2019-04-26T00:07:41.396Z,8.35
2019-04-26T00:10:20.470Z,8.33
2019-04-26T00:12:54.433Z,8.53
2019-04-26T00:15:24.968Z,9.30
2019-04-26T00:17:58.688Z,8.53
2019-04-26T00:20:28.731Z,8.45
2019-04-26T00:22:57.435Z,7.70
2019-04-26T00:25:26.526Z,8.75
2019-04-26T00:27:55.300Z,8.98
2019-04-26T00:30:24.585Z,8.20
2019-04-26T00:32:54.964Z,8.03
2019-04-26T00:35:23.767Z,8.78
2019-04-26T00:37:52.513Z,9.08
2019-04-26T00:40:22.360Z,8.60
2019-04-26T00:42:53.504Z,8.90
2019-04-26T00:45:24.797Z,8.58
2019-04-26T00:47:54.587Z,8.18
2019-04-26T00:50:23.521Z,7.90
2019-04-26T00:52:54.267Z,8.10
2019-04-26T00:55:24.024Z,8.45
2019-04-26T00:57:52.845Z,9.90
2019-04-26T01:00:23.536Z,8.73
2019-04-26T01:02:53.909Z,8.35
2019-04-26T01:05:23.158Z,8.05
2019-04-26T01:07:53.486Z,7.95
2019-04-26T01:10:23.499Z,8.65
2019-04-26T01:12:54.448Z,7.72
2019-04-26T01:15:24.630Z,7.67
2019-04-26T01:17:54.717Z,8.13
2019-04-26T01:20:26.825Z,9.38
2019-04-26T01:22:58.492Z,7.28
2019-04-26T01:25:48.578Z,8.60
2019-04-26T01:28:28.952Z,8.43
2019-04-26T01:31:00.317Z,10.20
2019-04-26T01:33:31.420Z,8.30
2019-04-26T01:36:12.141Z,7.67
2019-04-26T01:38:30.641Z,8.48
2019-04-26T01:41:01.299Z,8.58
2019-04-26T01:43:50.833Z,8.03
2019-04-26T01:46:24.821Z,8.35
2019-04-26T01:48:59.199Z,7.62
2019-04-26T01:51:30.861Z,8.85
2019-04-26T01:53:59.692Z,7.85
2019-04-26T01:56:31.467Z,8.40
2019-04-26T01:59:00.373Z,8.35
2019-04-26T02:01:31.615Z,7.87
2019-04-26T02:04:02.131Z,8.33
2019-04-26T02:06:34.846Z,9.03
2019-04-26T02:09:01.386Z,8.48
2019-04-26T02:11:31.388Z,8.78
2019-04-26T02:14:00.146Z,8.25
2019-04-26T02:16:29.640Z,8.48
2019-04-26T02:18:59.476Z,9.15
2019-04-26T02:21:34.219Z,8.33
2019-04-26T02:24:07.875Z,9.58
2019-04-26T02:26:38.500Z,9.35
2019-04-26T02:29:15.007Z,8.30
2019-04-26T02:31:46.520Z,7.83
2019-04-26T02:34:16.053Z,7.78
2019-04-26T02:36:57.262Z,8.73
2019-04-26T02:46:10.511Z,7.75
2019-04-26T02:48:46.346Z,8.53
2019-04-26T02:51:19.456Z,8.10
2019-04-26T02:53:57.051Z,8.78
2019-04-26T02:56:32.231Z,8.08
2019-04-26T02:59:10.672Z,7.95
2019-04-26T03:01:40.144Z,8.35
2019-04-26T03:04:08.937Z,8.45
2019-04-26T03:06:41.103Z,8.50
2019-04-26T03:09:14.789Z,8.00
2019-04-26T03:11:46.765Z,8.98
2019-04-26T03:14:19.045Z,8.35
2019-04-26T03:17:11.279Z,7.80
2019-04-26T03:19:59.826Z,8.15
2019-04-26T03:22:39.438Z,8.35
2019-04-26T03:25:18.288Z,8.15
2019-04-26T03:28:01.893Z,8.68
2019-04-26T03:30:42.356Z,8.68
2019-04-26T03:33:27.139Z,7.83
2019-04-26T03:36:06.197Z,9.13
2019-04-26T03:38:51.180Z,8.38
2019-04-26T03:41:34.242Z,7.90
2019-04-26T03:44:23.153Z,9.53
2019-04-26T03:46:58.198Z,7.87
2019-04-26T03:49:55.071Z,8.30
2019-04-26T03:52:47.968Z,7.90
2019-04-26T03:55:30.104Z,7.47
2019-04-26T03:58:08.813Z,7.50
2019-04-26T04:00:50.746Z,8.90
2019-04-26T04:03:29.649Z,7.45
2019-04-26T04:06:02.000Z,8.03
2019-04-26T04:08:40.755Z,8.90
2019-04-26T04:11:19.725Z,8.23
2019-04-26T04:13:53.954Z,7.50
2019-04-26T04:16:31.764Z,8.58
2019-04-26T04:22:49.335Z,8.75
2019-04-26T04:25:30.065Z,8.03
2019-04-26T04:28:04.490Z,7.92
2019-04-26T04:31:03.525Z,7.80
2019-04-26T04:33:47.837Z,8.15
2019-04-26T04:36:21.511Z,7.93
2019-04-26T04:39:12.199Z,8.48
2019-04-26T04:42:29.757Z,8.30
2019-04-26T04:45:27.191Z,9.53
2019-04-26T04:48:29.844Z,8.73
2019-04-26T04:51:25.828Z,8.60
2019-04-26T04:54:00.376Z,8.75
2019-04-26T04:56:47.820Z,9.50
2019-04-26T04:59:19.623Z,9.18
2019-04-26T05:02:00.318Z,9.25
2019-04-26T05:05:07.033Z,10.00
2019-04-26T05:07:49.369Z,10.53
2019-04-26T05:10:21.431Z,10.32
2019-04-26T05:13:15.560Z,10.68
2019-04-26T05:16:13.498Z,10.72
2019-04-26T05:18:48.545Z,10.63
2019-04-26T05:21:33.437Z,12.30
2019-04-26T05:24:08.531Z,10.25
2019-04-26T05:26:47.761Z,11.48
2019-04-26T05:29:21.254Z,10.43
2019-04-26T05:32:09.367Z,10.35
2019-04-26T05:35:00.795Z,10.88
2019-04-26T05:37:51.053Z,11.80
2019-04-26T05:40:57.720Z,10.90
2019-04-26T05:43:53.906Z,11.22
2019-04-26T05:52:31.935Z,11.43
2019-04-26T05:55:26.302Z,12.10
2019-04-26T05:58:17.262Z,11.80
2019-04-26T06:01:17.758Z,13.00
2019-04-26T06:04:28.987Z,13.35
2019-04-26T06:07:30.259Z,12.70
2019-04-26T06:10:09.262Z,12.70
2019-04-26T06:12:48.250Z,12.68
2019-04-26T06:15:37.640Z,13.60
2019-04-26T06:18:37.910Z,13.98
2019-04-26T06:21:18.576Z,13.30
2019-04-26T06:23:59.971Z,13.78
2019-04-26T06:26:45.340Z,15.63
2019-04-26T06:29:35.540Z,15.78
2019-04-26T06:32:16.471Z,15.72
2019-04-26T06:34:50.907Z,16.02
2019-04-26T06:37:36.214Z,16.73
2019-04-26T06:40:22.695Z,16.17
2019-04-26T06:43:12.007Z,16.75
2019-04-26T06:46:06.324Z,16.37
2019-04-26T06:49:06.914Z,17.23
2019-04-26T06:55:19.698Z,17.35
2019-04-26T06:58:01.126Z,16.57
2019-04-26T07:00:59.280Z,17.87
2019-04-26T07:03:44.804Z,18.73
2019-04-26T07:06:21.106Z,19.65
2019-04-26T07:09:02.702Z,20.10
2019-04-26T07:11:51.527Z,18.12
2019-04-26T07:14:43.825Z,19.00
2019-04-26T07:17:52.784Z,19.05
2019-04-26T07:24:54.661Z,18.05
2019-04-26T10:00:59.223Z,7.05
2019-04-26T10:03:29.170Z,7.37
2019-04-26T10:05:57.938Z,6.60
2019-04-26T10:08:27.112Z,6.12
2019-04-26T10:10:57.149Z,6.05
2019-04-26T10:13:30.567Z,5.83
2019-04-26T10:16:04.291Z,6.17
2019-04-26T10:18:33.613Z,5.60
2019-04-26T10:21:02.438Z,5.35
2019-04-26T10:23:31.345Z,5.42
2019-04-26T10:26:00.614Z,4.80
2019-04-26T10:28:29.483Z,5.47
2019-04-26T10:30:58.478Z,5.05
2019-04-26T10:33:27.249Z,4.90
2019-04-26T10:35:57.797Z,4.83
2019-04-26T10:38:29.043Z,4.92
2019-04-26T10:40:58.496Z,5.30
2019-04-26T10:43:29.403Z,5.28
2019-04-26T10:45:58.249Z,5.97
2019-04-26T10:48:27.210Z,5.17
2019-04-26T10:50:56.185Z,5.47
2019-04-26T10:53:36.216Z,15.65
2019-04-26T10:56:24.297Z,5.95
2019-04-26T10:59:13.209Z,5.92
2019-04-26T11:01:42.400Z,5.47
2019-04-26T11:04:11.232Z,5.20
2019-04-26T11:06:40.067Z,6.08
2019-04-26T11:09:09.168Z,6.53
2019-04-26T11:11:38.578Z,6.92
2019-04-26T11:14:07.354Z,6.47
2019-04-26T11:16:37.219Z,6.05
2019-04-26T11:19:07.329Z,6.15
2019-04-26T11:21:36.066Z,6.45
2019-04-26T11:24:05.012Z,6.20
2019-04-26T11:26:34.773Z,6.90
2019-04-26T11:29:04.216Z,6.58
2019-04-26T11:31:32.999Z,7.47
2019-04-26T11:34:05.546Z,5.90
2019-04-26T11:36:33.015Z,6.92
2019-04-26T11:39:05.431Z,5.45
2019-04-26T11:41:34.035Z,6.67
2019-04-26T11:44:02.703Z,7.08
2019-04-26T11:47:03.276Z,6.25
2019-04-26T11:49:31.986Z,5.30
2019-04-26T11:52:02.789Z,4.80
2019-04-26T11:54:31.184Z,5.30
2019-04-26T11:56:59.914Z,5.37
2019-04-26T11:59:30.557Z,5.10
2019-04-26T12:01:59.694Z,5.35
2019-04-26T12:04:42.009Z,4.62
2019-04-26T12:07:15.172Z,4.40
2019-04-26T12:09:48.666Z,4.42
2019-04-26T12:12:18.043Z,4.72
2019-04-26T12:14:46.756Z,4.92
2019-04-26T12:17:15.508Z,4.80
2019-04-26T12:19:48.181Z,7.72
2019-04-26T12:22:15.851Z,4.78
2019-04-26T12:24:44.640Z,5.42
2019-04-26T12:27:13.489Z,4.85
2019-04-26T12:29:44.230Z,4.70
2019-04-26T12:32:13.029Z,5.28
2019-04-26T12:34:41.937Z,5.37
2019-04-26T12:37:12.598Z,5.35
2019-04-26T12:39:41.189Z,4.62
2019-04-26T12:42:12.270Z,7.10
2019-04-26T12:44:43.087Z,5.45
2019-04-26T12:47:44.685Z,4.62
2019-04-26T12:50:14.788Z,4.58
2019-04-26T12:52:43.682Z,5.00
2019-04-26T12:55:13.803Z,4.65
2019-04-26T12:57:42.997Z,4.83
2019-04-26T13:00:13.835Z,5.83
2019-04-26T13:02:42.677Z,4.92
2019-04-26T13:05:14.523Z,5.80
2019-04-26T13:07:42.975Z,5.15
2019-04-26T13:10:20.679Z,5.62
2019-04-26T13:12:54.206Z,5.72
2019-04-26T13:15:46.257Z,8.38
2019-04-26T13:18:14.542Z,5.67
2019-04-26T13:20:44.009Z,6.80
2019-04-26T13:23:12.877Z,5.85
2019-04-26T13:25:42.184Z,5.33
2019-04-26T13:28:15.715Z,4.92
2019-04-26T13:30:43.605Z,5.35
2019-04-26T13:33:12.922Z,6.03
2019-04-26T13:35:46.553Z,6.33
2019-04-26T13:38:12.414Z,6.20
2019-04-26T13:40:41.158Z,7.10
2019-04-26T13:43:10.770Z,6.08
2019-04-26T13:45:41.236Z,5.78
2019-04-26T13:48:30.687Z,5.87
2019-04-26T13:51:07.024Z,5.30
2019-04-26T13:53:37.386Z,6.58
2019-04-26T13:56:08.127Z,5.87
2019-04-26T13:58:36.885Z,6.10
2019-04-26T14:01:05.809Z,7.62
2019-04-26T14:03:36.350Z,6.33
2019-04-26T14:06:07.073Z,7.45
2019-04-26T14:08:39.839Z,6.28
2019-04-26T14:11:08.652Z,6.10
2019-04-26T14:13:37.976Z,6.33
2019-04-26T14:16:07.167Z,6.35
2019-04-26T14:18:39.116Z,5.95
2019-04-26T14:21:06.857Z,6.12
2019-04-26T14:23:45.351Z,6.12
2019-04-26T14:26:15.559Z,8.60
2019-04-26T14:28:45.398Z,7.50
2019-04-26T14:31:16.553Z,8.28
2019-04-26T14:33:45.353Z,6.87
2019-04-26T14:36:17.915Z,6.80
2019-04-26T14:38:44.669Z,6.92
2019-04-26T14:41:21.881Z,7.17
2019-04-26T14:43:52.423Z,7.20
2019-04-26T14:46:17.182Z,5.95
2019-04-26T14:49:00.630Z,6.65
2019-04-26T14:51:18.466Z,7.12
2019-04-26T14:53:48.401Z,6.58
2019-04-26T14:56:17.961Z,6.08
2019-04-26T14:58:46.756Z,8.83
2019-04-26T15:01:32.327Z,6.60
2019-04-26T15:04:17.928Z,5.75
2019-04-26T15:06:52.006Z,5.95
2019-04-26T15:09:20.190Z,5.83
2019-04-26T15:11:55.372Z,6.20
2019-04-26T15:14:24.283Z,6.03
2019-04-26T15:16:54.518Z,6.15
2019-04-26T15:19:35.013Z,8.05
2019-04-26T15:22:09.838Z,8.08
2019-04-26T15:24:35.117Z,6.42
2019-04-26T15:27:04.089Z,6.92
2019-04-26T15:29:33.246Z,6.80
2019-04-26T15:32:04.835Z,6.03
2019-04-26T15:34:32.486Z,5.90
2019-04-26T15:37:02.992Z,7.03
2019-04-26T15:39:44.517Z,8.95
2019-04-26T15:42:31.535Z,8.90
2019-04-26T15:45:04.660Z,7.83
2019-04-26T15:47:35.029Z,6.08
2019-04-26T15:50:10.036Z,5.60
2019-04-26T15:52:37.052Z,6.33
2019-04-26T15:55:06.649Z,6.50
2019-04-26T15:57:36.164Z,7.62
2019-04-26T16:00:07.518Z,6.25
2019-04-26T16:02:37.046Z,5.75
2019-04-26T16:05:09.638Z,6.83
2019-04-26T16:07:38.400Z,6.40
2019-04-26T16:10:07.508Z,6.45
2019-04-26T16:12:36.260Z,7.17
2019-04-26T16:15:11.469Z,7.80
2019-04-26T16:17:40.081Z,8.40
2019-04-26T16:20:08.712Z,7.15
2019-04-26T16:22:37.616Z,7.55
2019-04-26T16:25:07.723Z,7.45
2019-04-26T16:27:36.539Z,6.83
2019-04-26T16:30:12.986Z,7.33
2019-04-26T16:35:28.088Z,7.33
2019-04-26T16:38:00.291Z,6.67
2019-04-26T16:40:32.475Z,6.83
2019-04-26T16:43:04.189Z,7.15
2019-04-26T16:45:37.291Z,6.65
2019-04-26T16:48:04.403Z,6.92
2019-04-26T16:50:37.203Z,7.50
2019-04-26T16:53:03.607Z,6.30
2019-04-26T16:55:37.998Z,5.67
2019-04-26T16:58:04.683Z,6.33
2019-04-26T17:00:50.263Z,6.20
2019-04-26T17:03:08.030Z,5.40
2019-04-26T17:05:47.485Z,5.45
2019-04-26T17:08:10.004Z,5.70
2019-04-26T17:09:51.145Z,7.37
2019-04-26T17:10:37.910Z,5.08
2019-04-26T17:13:06.826Z,5.60
2019-04-26T17:15:42.870Z,5.87
2019-04-26T17:18:12.731Z,5.83
2019-04-26T17:20:44.941Z,5.58
2019-04-26T17:23:19.418Z,5.22
2019-04-26T17:26:08.664Z,6.33
2019-04-26T17:28:38.634Z,5.80
2019-04-26T17:31:10.407Z,6.42
2019-04-26T17:33:39.211Z,6.55
2019-04-26T17:36:11.528Z,6.37
2019-04-26T17:38:39.177Z,6.00
2019-04-26T17:41:12.666Z,6.78
2019-04-26T17:43:46.948Z,6.20
2019-04-26T17:46:14.507Z,6.50
2019-04-26T17:48:44.793Z,5.95
2019-04-26T17:51:18.954Z,7.40
2019-04-26T17:53:47.981Z,6.83
2019-04-26T17:56:17.843Z,7.35
2019-04-26T17:58:52.341Z,7.25
2019-04-26T18:01:39.821Z,7.12
2019-04-26T18:03:54.341Z,6.72
2019-04-26T18:06:29.565Z,6.95
2019-04-26T18:08:54.711Z,6.80
2019-04-26T18:11:24.748Z,7.03
2019-04-26T18:13:52.705Z,6.85
2019-04-26T18:16:22.324Z,6.40
2019-04-26T18:19:12.740Z,8.13
2019-04-26T18:21:56.098Z,6.75
2019-04-26T18:24:27.483Z,6.35
2019-04-26T18:26:59.186Z,7.22
2019-04-26T18:29:29.203Z,7.28
2019-04-26T18:31:59.176Z,6.65
2019-04-26T18:34:34.625Z,6.72
2019-04-26T18:37:02.000Z,7.40
2019-04-26T18:39:33.178Z,7.17
2019-04-26T18:42:02.895Z,6.75
2019-04-26T18:44:36.836Z,7.33
2019-04-26T18:47:04.704Z,7.78
2019-04-26T18:49:33.477Z,7.15
2019-04-26T18:52:03.711Z,7.35
2019-04-26T18:54:51.321Z,7.03
2019-04-26T18:57:21.776Z,7.55
2019-04-26T18:59:52.859Z,8.13
2019-04-26T19:02:23.563Z,7.00
2019-04-26T19:04:52.948Z,6.60
2019-04-26T19:07:32.123Z,6.67
2019-04-26T19:10:03.416Z,6.87
2019-04-26T19:12:26.926Z,7.33
2019-04-26T19:15:03.208Z,7.30
2019-04-26T19:17:30.133Z,8.48
2019-04-26T19:20:03.658Z,7.87
2019-04-26T19:22:34.516Z,6.78
2019-04-26T19:25:02.967Z,7.60
2019-04-26T19:27:33.197Z,7.15
2019-04-26T19:30:04.296Z,7.15
2019-04-26T19:32:35.447Z,7.08
2019-04-26T19:38:14.729Z,7.97
2019-04-26T19:40:55.494Z,7.22
2019-04-26T19:43:32.550Z,6.92
2019-04-26T19:46:16.931Z,7.22
2019-04-26T19:48:55.523Z,7.45
2019-04-26T19:51:30.782Z,6.62
2019-04-26T19:54:02.089Z,7.55
2019-04-26T19:56:33.065Z,7.70
2019-04-26T19:59:03.230Z,7.50
2019-04-26T20:01:35.659Z,7.40
2019-04-26T20:04:05.321Z,7.08
2019-04-26T20:06:34.164Z,7.65
2019-04-26T20:09:03.472Z,7.45
2019-04-26T20:11:34.652Z,7.72
2019-04-26T20:14:03.495Z,7.85
2019-04-26T20:16:32.515Z,6.87
2019-04-26T20:19:02.495Z,6.67
2019-04-26T20:21:34.235Z,7.60
2019-04-26T20:24:04.826Z,7.30
2019-04-26T20:26:37.316Z,7.47
2019-04-26T20:29:06.145Z,7.10
2019-04-26T20:31:52.068Z,8.53
2019-04-26T20:34:22.903Z,7.65
2019-04-26T20:36:52.150Z,8.10
2019-04-26T20:39:24.227Z,7.83
2019-04-26T20:42:00.990Z,8.40
2019-04-26T20:44:28.679Z,7.58
2019-04-26T20:50:23.290Z,8.55
2019-04-26T20:53:00.669Z,6.78
2019-04-26T20:55:30.385Z,7.78
2019-04-26T20:58:04.882Z,7.70
2019-04-26T21:00:31.651Z,7.87
2019-04-26T21:03:05.796Z,8.03
2019-04-26T21:05:45.913Z,7.62
2019-04-26T21:08:05.616Z,7.08
2019-04-26T21:10:35.936Z,6.62
2019-04-26T21:13:05.961Z,6.85
2019-04-26T21:15:36.088Z,6.65
2019-04-26T21:18:05.295Z,7.60
2019-04-26T21:20:36.453Z,7.53
2019-04-26T21:23:04.648Z,8.03
2019-04-26T21:25:42.050Z,7.67
2019-04-26T21:28:22.117Z,7.58
2019-04-26T21:30:56.597Z,7.97
2019-04-26T21:33:35.396Z,8.10
2019-04-26T21:36:02.540Z,7.60
2019-04-26T21:38:36.394Z,8.38
2019-04-26T21:41:11.357Z,8.68
2019-04-26T21:43:38.394Z,6.92
2019-04-26T21:46:10.336Z,7.15
2019-04-26T21:48:41.948Z,7.30
2019-04-26T21:51:14.474Z,8.80
2019-04-26T21:53:43.862Z,7.15
2019-04-26T21:56:11.589Z,7.67
2019-04-26T21:58:41.157Z,7.08
2019-04-26T22:01:15.695Z,7.35
2019-04-26T22:03:47.401Z,7.67
2019-04-26T22:06:14.351Z,8.65
2019-04-26T22:08:47.284Z,7.17
2019-04-26T22:11:19.871Z,7.95
2019-04-26T22:14:03.477Z,7.22
2019-04-26T22:16:53.403Z,7.37
2019-04-26T22:19:35.338Z,7.60
2019-04-26T22:22:06.962Z,7.85
2019-04-26T22:24:39.806Z,6.72
2019-04-26T22:27:08.528Z,8.70
2019-04-26T22:29:37.357Z,7.20
2019-04-26T22:32:06.120Z,7.08
2019-04-26T22:34:37.408Z,7.53
2019-04-26T22:37:11.610Z,8.15
2019-04-26T22:39:39.786Z,7.87
2019-04-26T22:42:10.270Z,8.58
2019-04-26T22:44:40.597Z,8.25
2019-04-26T22:47:21.447Z,7.50
2019-04-26T22:49:51.975Z,8.35
2019-04-26T22:52:22.955Z,8.98
2019-04-26T22:54:53.741Z,7.40
2019-04-26T22:57:23.573Z,8.38
2019-04-26T22:59:56.812Z,7.80
2019-04-26T23:02:28.062Z,7.40
2019-04-26T23:05:00.646Z,7.80
2019-04-26T23:07:28.762Z,7.62
2019-04-26T23:09:57.658Z,7.72
2019-04-26T23:12:36.981Z,7.92
2019-04-26T23:15:24.027Z,7.17
2019-04-26T23:20:39.979Z,8.60
2019-04-26T23:23:09.510Z,8.50
2019-04-26T23:25:39.638Z,8.25
2019-04-26T23:28:08.814Z,7.83
2019-04-26T23:30:37.644Z,8.15
2019-04-26T23:33:07.125Z,8.13
2019-04-26T23:35:43.356Z,8.25
2019-04-26T23:38:08.155Z,8.95
2019-04-26T23:40:37.909Z,8.63
2019-04-26T23:43:06.633Z,9.13
2019-04-26T23:45:35.554Z,8.83
2019-04-26T23:48:07.756Z,8.68
2019-04-26T23:50:35.911Z,8.80
2019-04-26T23:53:04.688Z,8.90
2019-04-26T23:55:33.822Z,8.63
2019-04-26T23:58:04.897Z,8.15
